createdAt,value
2022-08-21T00:02:18.040Z,96.20
2022-08-21T00:04:57.703Z,96.60
2022-08-21T00:07:29.814Z,96.90
2022-08-21T00:10:01.879Z,96.90
2022-08-21T00:12:33.736Z,97.10
2022-08-21T00:15:09.012Z,97.30
2022-08-21T00:17:41.108Z,97.30
2022-08-21T00:20:15.314Z,97.20
2022-08-21T00:22:47.623Z,97.00
2022-08-21T00:25:24.203Z,97.30
2022-08-21T00:27:57.450Z,97.30
2022-08-21T00:30:30.114Z,97.10
2022-08-21T00:33:02.978Z,97.30
2022-08-21T00:35:38.326Z,97.60
2022-08-21T00:38:11.083Z,97.40
2022-08-21T00:40:45.333Z,97.20
2022-08-21T00:43:21.981Z,97.30
2022-08-21T00:45:54.386Z,97.40
2022-08-21T00:48:27.567Z,97.40
2022-08-21T00:51:06.062Z,97.40
2022-08-21T00:53:42.332Z,97.40
2022-08-21T00:56:15.135Z,97.50
2022-08-21T00:58:49.098Z,97.40
2022-08-21T01:01:27.175Z,97.70
2022-08-21T01:03:59.216Z,97.20
2022-08-21T01:06:31.084Z,96.90
2022-08-21T01:09:04.140Z,97.00
2022-08-21T01:11:36.918Z,97.20
2022-08-21T01:14:08.858Z,97.50
2022-08-21T01:16:44.515Z,97.30
2022-08-21T01:19:19.081Z,97.20
2022-08-21T01:21:51.544Z,97.10
2022-08-21T01:24:23.665Z,97.00
2022-08-21T01:26:55.667Z,96.60
2022-08-21T01:30:03.145Z,96.50
2022-08-21T01:32:38.676Z,96.60
2022-08-21T01:35:12.832Z,96.80
2022-08-21T01:37:45.565Z,97.10
2022-08-21T01:40:18.750Z,97.40
2022-08-21T01:42:50.782Z,97.30
2022-08-21T01:45:22.893Z,97.20
2022-08-21T01:47:54.813Z,97.20
2022-08-21T01:50:26.797Z,97.20
2022-08-21T01:52:58.941Z,97.00
2022-08-21T01:55:31.300Z,96.90
2022-08-21T01:58:03.370Z,97.30
2022-08-21T02:00:35.455Z,97.30
2022-08-21T02:03:07.412Z,97.20
2022-08-21T02:05:39.311Z,97.50
2022-08-21T02:08:11.239Z,97.60
2022-08-21T02:10:43.590Z,97.80
2022-08-21T02:13:21.339Z,97.70
2022-08-21T02:15:53.234Z,97.20
2022-08-21T02:18:25.292Z,97.10
2022-08-21T02:20:57.323Z,96.70
2022-08-21T02:23:29.228Z,96.60
2022-08-21T02:26:04.170Z,96.60
2022-08-21T02:28:37.982Z,96.40
2022-08-21T02:31:10.154Z,96.60
2022-08-21T02:33:42.148Z,96.60
2022-08-21T02:36:14.948Z,96.60
2022-08-21T02:38:47.014Z,96.70
2022-08-21T02:41:21.756Z,96.60
2022-08-21T02:43:53.669Z,96.60
2022-08-21T02:46:25.595Z,96.60
2022-08-21T02:48:57.495Z,96.40
2022-08-21T02:51:29.488Z,96.60
2022-08-21T02:54:01.416Z,96.70
2022-08-21T02:56:33.387Z,96.80
2022-08-21T02:59:05.321Z,97.00
2022-08-21T03:01:38.453Z,96.80
2022-08-21T03:04:10.396Z,96.90
2022-08-21T03:06:42.361Z,97.00
2022-08-21T03:09:14.326Z,97.20
2022-08-21T03:11:46.568Z,97.20
2022-08-21T03:14:19.153Z,97.20
2022-08-21T03:16:50.943Z,97.00
2022-08-21T03:19:22.909Z,97.20
2022-08-21T03:21:54.836Z,97.30
2022-08-21T03:24:27.263Z,97.40
2022-08-21T03:26:59.188Z,97.30
2022-08-21T03:29:31.597Z,97.20
2022-08-21T03:32:04.064Z,97.40
2022-08-21T03:34:37.249Z,97.30
2022-08-21T03:37:09.960Z,97.20
2022-08-21T03:39:43.031Z,97.10
2022-08-21T03:42:14.956Z,97.10
2022-08-21T03:44:47.044Z,97.50
2022-08-21T03:47:19.352Z,97.30
2022-08-21T03:49:51.526Z,97.80
2022-08-21T03:52:24.218Z,97.30
2022-08-21T03:54:56.075Z,97.20
2022-08-21T03:57:27.956Z,97.70
2022-08-21T03:59:59.837Z,97.40
2022-08-21T04:02:33.427Z,97.40
2022-08-21T04:05:06.730Z,97.80
2022-08-21T04:07:38.674Z,97.80
2022-08-21T04:10:10.704Z,97.90
2022-08-21T04:12:42.591Z,98.20
2022-08-21T04:15:15.667Z,98.20
2022-08-21T04:17:47.825Z,98.20
2022-08-21T04:20:20.912Z,98.00
2022-08-21T04:22:53.522Z,97.90
2022-08-21T04:25:28.735Z,98.00
2022-08-21T04:28:00.735Z,97.80
2022-08-21T04:30:32.993Z,98.20
2022-08-21T04:33:04.896Z,98.30
2022-08-21T04:35:36.994Z,98.60
2022-08-21T04:38:08.903Z,98.60
2022-08-21T04:40:40.764Z,98.60
2022-08-21T04:43:13.268Z,99.10
2022-08-21T04:45:48.702Z,98.90
2022-08-21T04:48:22.756Z,98.80
2022-08-21T04:51:12.980Z,99.00
2022-08-21T04:53:56.705Z,98.70
2022-08-21T04:56:46.621Z,98.30
2022-08-21T04:59:28.843Z,98.10
2022-08-21T05:02:01.696Z,97.70
2022-08-21T05:04:35.261Z,97.30
2022-08-21T05:07:11.376Z,97.30
2022-08-21T05:09:43.895Z,97.40
2022-08-21T05:12:16.029Z,97.30
2022-08-21T05:14:48.142Z,96.80
2022-08-21T05:17:20.010Z,96.20
2022-08-21T05:19:51.900Z,95.90
2022-08-21T05:22:25.297Z,95.70
2022-08-21T05:24:58.378Z,96.00
2022-08-21T05:27:31.689Z,95.70
2022-08-21T05:30:06.088Z,95.90
2022-08-21T05:32:38.171Z,96.40
2022-08-21T05:35:10.168Z,95.70
2022-08-21T05:37:41.985Z,95.30
2022-08-21T05:40:21.658Z,95.20
2022-08-21T05:42:56.801Z,94.60
2022-08-21T05:45:42.025Z,94.20
2022-08-21T05:48:24.169Z,94.10
2022-08-21T05:50:56.088Z,94.00
2022-08-21T05:53:27.943Z,93.50
2022-08-21T05:55:59.784Z,93.00
2022-08-21T05:58:33.773Z,92.90
2022-08-21T06:01:06.261Z,92.80
2022-08-21T06:03:40.121Z,92.70
2022-08-21T06:06:12.094Z,92.30
2022-08-21T06:08:44.217Z,92.10
2022-08-21T06:11:16.036Z,92.00
2022-08-21T06:13:47.934Z,91.80
2022-08-21T06:16:20.023Z,91.30
2022-08-21T06:18:51.970Z,91.20
2022-08-21T06:21:23.826Z,91.10
2022-08-21T06:23:56.598Z,91.20
2022-08-21T06:26:30.135Z,90.60
2022-08-21T06:29:02.181Z,90.30
2022-08-21T06:31:34.051Z,89.50
2022-08-21T06:34:06.116Z,88.50
2022-08-21T06:36:38.144Z,87.90
2022-08-21T06:39:24.968Z,86.80
2022-08-21T06:41:57.616Z,86.80
2022-08-21T06:44:33.899Z,85.40
2022-08-21T06:47:05.886Z,85.20
2022-08-21T06:49:37.815Z,84.40
2022-08-21T06:52:11.896Z,83.70
2022-08-21T06:54:43.847Z,84.00
2022-08-21T06:57:15.723Z,83.30
2022-08-21T06:59:47.680Z,82.40
2022-08-21T07:02:19.537Z,81.30
2022-08-21T07:04:51.971Z,80.20
2022-08-21T07:07:23.889Z,79.60
2022-08-21T07:09:55.869Z,79.90
2022-08-21T07:12:28.152Z,80.60
2022-08-21T07:15:00.042Z,79.50
2022-08-21T07:17:31.928Z,79.30
2022-08-21T07:20:06.063Z,75.60
2022-08-21T07:22:39.793Z,75.40
2022-08-21T07:25:11.877Z,72.70
2022-08-21T07:27:43.779Z,72.90
2022-08-21T07:30:15.683Z,73.80
2022-08-21T07:32:50.158Z,74.40
2022-08-21T07:35:22.755Z,76.20
2022-08-21T07:37:54.709Z,76.40
2022-08-21T07:40:27.005Z,76.40
2022-08-21T07:42:59.281Z,79.00
2022-08-21T07:45:31.879Z,79.90
2022-08-21T07:48:04.276Z,79.90
2022-08-21T07:50:36.529Z,79.30
2022-08-21T07:53:08.475Z,76.90
2022-08-21T07:55:40.320Z,75.00
2022-08-21T07:58:12.207Z,75.30
2022-08-21T08:00:44.253Z,76.80
2022-08-21T08:03:20.949Z,77.30
2022-08-21T08:06:01.298Z,76.60
2022-08-21T08:08:33.996Z,76.40
2022-08-21T08:11:06.222Z,74.80
2022-08-21T08:13:42.565Z,74.90
2022-08-21T08:16:14.935Z,76.80
2022-08-21T08:18:47.358Z,76.10
2022-08-21T08:21:21.940Z,76.70
2022-08-21T08:23:54.433Z,76.40
2022-08-21T08:26:26.327Z,78.80
2022-08-21T08:28:58.215Z,78.00
2022-08-21T08:31:30.287Z,77.40
2022-08-21T08:34:02.340Z,77.10
2022-08-21T08:36:38.193Z,79.80
2022-08-21T08:39:12.935Z,78.50
2022-08-21T08:42:32.744Z,78.00
2022-08-21T08:45:08.063Z,78.40
2022-08-21T08:47:45.636Z,78.70
2022-08-21T08:50:22.471Z,78.70
2022-08-21T08:53:11.839Z,80.90
2022-08-21T08:55:45.732Z,78.40
2022-08-21T08:58:25.531Z,78.00
2022-08-21T09:00:58.109Z,78.30
2022-08-21T09:03:31.524Z,78.40
2022-08-21T09:06:38.169Z,79.10
2022-08-21T09:09:26.543Z,78.60
2022-08-21T09:12:21.400Z,78.20
2022-08-21T09:15:12.216Z,77.80
2022-08-21T09:18:08.109Z,78.40
2022-08-21T09:20:59.971Z,77.50
2022-08-21T09:24:11.814Z,78.70
2022-08-21T09:27:01.802Z,78.00
2022-08-21T09:29:37.482Z,79.20
2022-08-21T09:32:18.978Z,78.80
2022-08-21T09:34:56.951Z,78.10
2022-08-21T09:37:31.456Z,79.50
2022-08-21T09:40:16.402Z,78.60
2022-08-21T09:43:00.627Z,78.30
2022-08-21T09:45:33.982Z,77.80
2022-08-21T09:48:11.922Z,79.00
2022-08-21T09:50:45.179Z,76.20
2022-08-21T09:53:26.593Z,76.90
2022-08-21T09:56:24.398Z,76.90
2022-08-21T09:58:57.065Z,77.40
2022-08-21T10:01:29.410Z,76.60
2022-08-21T10:04:06.282Z,77.90
2022-08-21T10:06:38.608Z,78.00
2022-08-21T10:09:21.110Z,78.00
2022-08-21T10:12:11.404Z,78.20
2022-08-21T10:14:58.204Z,78.40
2022-08-21T10:17:45.812Z,78.30
2022-08-21T10:21:03.236Z,76.90
2022-08-21T10:23:53.058Z,76.30
2022-08-21T10:26:52.673Z,78.00
2022-08-21T10:29:30.495Z,77.30
2022-08-21T10:32:30.239Z,76.60
2022-08-21T10:35:07.961Z,75.30
2022-08-21T10:37:51.936Z,76.50
2022-08-21T10:40:43.728Z,75.90
2022-08-21T10:43:16.587Z,75.60
2022-08-21T10:46:10.264Z,74.80
2022-08-21T10:49:08.340Z,75.90
2022-08-21T10:51:43.231Z,74.90
2022-08-21T10:54:24.471Z,74.40
2022-08-21T10:57:06.419Z,74.40
2022-08-21T10:59:50.478Z,76.10
2022-08-21T11:02:37.610Z,77.90
2022-08-21T11:05:21.552Z,77.10
2022-08-21T11:08:04.982Z,76.40
2022-08-21T11:10:59.993Z,76.60
2022-08-21T11:13:57.012Z,73.60
2022-08-21T11:16:39.170Z,75.40
2022-08-21T11:19:29.804Z,74.00
2022-08-21T11:22:12.343Z,74.20
2022-08-21T11:25:11.877Z,74.50
2022-08-21T11:27:53.412Z,73.70
2022-08-21T11:30:33.709Z,72.70
2022-08-21T11:33:14.335Z,72.90
2022-08-21T11:35:52.439Z,73.00
2022-08-21T11:38:53.024Z,73.60
2022-08-21T11:41:38.365Z,72.70
2022-08-21T11:44:23.194Z,71.90
2022-08-21T11:47:04.932Z,70.20
2022-08-21T11:50:29.681Z,71.80
2022-08-21T11:53:18.377Z,71.90
2022-08-21T11:56:02.632Z,72.30
2022-08-21T11:58:42.768Z,71.40
2022-08-21T12:01:22.737Z,70.50
2022-08-21T12:04:00.869Z,72.40
2022-08-21T12:06:39.297Z,70.00
2022-08-21T12:09:26.063Z,71.30
2022-08-21T12:12:11.496Z,71.90
2022-08-21T12:14:47.967Z,71.10
2022-08-21T12:17:27.750Z,71.20
2022-08-21T12:20:02.719Z,71.00
2022-08-21T12:22:42.120Z,69.80
2022-08-21T12:25:21.704Z,69.50
2022-08-21T12:28:07.219Z,70.50
2022-08-21T12:30:44.442Z,71.70
2022-08-21T12:33:24.695Z,69.60
2022-08-21T12:36:22.853Z,70.00
2022-08-21T12:39:07.505Z,68.90
2022-08-21T12:42:02.352Z,67.80
2022-08-21T12:44:40.980Z,70.30
2022-08-21T12:47:31.911Z,70.80
2022-08-21T12:50:29.796Z,70.60
2022-08-21T12:53:18.506Z,70.70
2022-08-21T12:55:53.092Z,69.70
2022-08-21T12:58:25.780Z,70.70
2022-08-21T13:01:08.690Z,70.30
2022-08-21T13:03:42.145Z,69.20
2022-08-21T13:06:18.058Z,69.50
2022-08-21T13:09:08.552Z,68.50
2022-08-21T13:11:46.366Z,67.80
2022-08-21T13:14:32.851Z,68.30
2022-08-21T13:17:07.891Z,68.50
2022-08-21T13:19:40.277Z,69.30
2022-08-21T13:22:33.287Z,68.60
2022-08-21T13:25:11.999Z,69.70
2022-08-21T13:27:58.118Z,68.30
2022-08-21T13:30:31.736Z,68.20
2022-08-21T13:33:10.990Z,67.70
2022-08-21T13:35:56.844Z,68.50
2022-08-21T13:38:32.553Z,69.00
2022-08-21T13:41:16.863Z,68.80
2022-08-21T13:43:59.667Z,68.30
2022-08-21T13:46:37.351Z,68.10
2022-08-21T13:49:10.877Z,66.80
2022-08-21T13:51:43.876Z,68.10
2022-08-21T13:54:37.903Z,68.90
2022-08-21T13:57:25.781Z,69.30
2022-08-21T14:00:20.670Z,69.40
2022-08-21T14:02:55.012Z,69.20
2022-08-21T14:05:30.576Z,68.20
2022-08-21T14:08:11.246Z,68.10
2022-08-21T14:10:54.834Z,69.00
2022-08-21T14:13:38.020Z,68.70
2022-08-21T14:16:18.700Z,69.50
2022-08-21T14:19:10.105Z,69.80
2022-08-21T14:21:47.043Z,70.00
2022-08-21T14:24:25.155Z,70.30
2022-08-21T14:27:04.889Z,69.50
2022-08-21T14:29:41.933Z,69.60
2022-08-21T14:32:25.432Z,70.90
2022-08-21T14:34:59.376Z,68.90
2022-08-21T14:37:31.323Z,70.30
2022-08-21T14:40:04.668Z,69.50
2022-08-21T14:42:39.509Z,69.40
2022-08-21T14:45:32.350Z,69.40
2022-08-21T14:48:04.536Z,69.40
2022-08-21T14:50:37.000Z,70.00
2022-08-21T14:53:11.045Z,69.20
2022-08-21T14:56:12.890Z,69.40
2022-08-21T14:58:50.240Z,69.40
2022-08-21T15:01:23.930Z,69.70
2022-08-21T15:03:55.843Z,70.00
2022-08-21T15:06:29.560Z,69.90
2022-08-21T15:09:04.072Z,70.00
2022-08-21T15:11:42.176Z,70.60
2022-08-21T15:14:22.441Z,70.50
2022-08-21T15:16:54.608Z,70.60
2022-08-21T15:19:26.953Z,70.30
2022-08-21T15:21:59.469Z,70.10
2022-08-21T15:24:31.861Z,69.70
2022-08-21T15:27:07.059Z,70.50
2022-08-21T15:29:39.036Z,69.50
2022-08-21T15:32:29.871Z,69.60
2022-08-21T15:35:03.310Z,70.10
2022-08-21T15:37:35.511Z,70.10
2022-08-21T15:40:08.642Z,69.90
2022-08-21T15:42:42.429Z,70.80
2022-08-21T15:45:14.993Z,71.30
2022-08-21T15:47:49.282Z,70.70
2022-08-21T15:50:22.316Z,70.70
2022-08-21T15:52:54.503Z,70.70
2022-08-21T15:55:27.006Z,71.40
2022-08-21T15:58:01.784Z,71.10
2022-08-21T16:00:37.336Z,70.60
2022-08-21T16:03:12.759Z,70.80
2022-08-21T16:05:45.846Z,70.30
2022-08-21T16:08:17.819Z,68.60
2022-08-21T16:10:50.371Z,69.30
2022-08-21T16:13:28.470Z,69.40
2022-08-21T16:16:00.459Z,71.10
2022-08-21T16:18:32.544Z,72.10
2022-08-21T16:21:04.590Z,71.90
2022-08-21T16:23:38.339Z,70.90
2022-08-21T16:26:14.135Z,69.90
2022-08-21T16:28:54.210Z,69.70
2022-08-21T16:31:27.939Z,71.30
2022-08-21T16:34:00.881Z,73.00
2022-08-21T16:36:32.882Z,73.00
2022-08-21T16:39:04.957Z,73.50
2022-08-21T16:41:37.169Z,73.30
2022-08-21T16:44:11.194Z,73.30
2022-08-21T16:46:43.424Z,74.00
2022-08-21T16:49:15.825Z,74.50
2022-08-21T16:51:48.788Z,73.80
2022-08-21T16:54:20.705Z,74.10
2022-08-21T16:56:54.223Z,74.10
2022-08-21T16:59:26.627Z,75.10
2022-08-21T17:01:58.602Z,76.50
2022-08-21T17:04:31.147Z,76.30
2022-08-21T17:07:03.046Z,76.60
2022-08-21T17:09:35.001Z,76.70
2022-08-21T17:12:07.941Z,77.20
2022-08-21T17:14:39.829Z,77.60
2022-08-21T17:17:12.378Z,78.80
2022-08-21T17:19:44.636Z,79.60
2022-08-21T17:22:16.480Z,79.60
2022-08-21T17:24:48.360Z,80.20
2022-08-21T17:27:22.540Z,80.20
2022-08-21T17:29:58.773Z,80.10
2022-08-21T17:32:31.377Z,80.20
2022-08-21T17:35:05.912Z,80.20
2022-08-21T17:37:38.103Z,79.90
2022-08-21T17:40:14.371Z,80.70
2022-08-21T17:42:47.624Z,80.40
2022-08-21T17:45:20.740Z,79.90
2022-08-21T17:47:52.663Z,80.00
2022-08-21T17:50:24.801Z,80.10
2022-08-21T17:52:57.025Z,80.60
2022-08-21T17:55:30.235Z,81.40
2022-08-21T17:58:03.668Z,82.70
2022-08-21T18:00:36.130Z,83.10
2022-08-21T18:03:15.755Z,84.00
2022-08-21T18:05:49.217Z,84.60
2022-08-21T18:08:21.181Z,85.20
2022-08-21T18:10:53.296Z,85.60
2022-08-21T18:13:29.125Z,85.60
2022-08-21T18:16:02.130Z,86.30
2022-08-21T18:18:40.937Z,86.40
2022-08-21T18:21:12.964Z,86.50
2022-08-21T18:23:45.174Z,86.90
2022-08-21T18:26:29.627Z,87.70
2022-08-21T18:29:02.390Z,87.90
2022-08-21T18:31:36.958Z,88.10
2022-08-21T18:34:20.239Z,88.30
2022-08-21T18:36:53.353Z,89.10
2022-08-21T18:39:36.475Z,89.00
2022-08-21T18:42:11.564Z,89.40
2022-08-21T18:44:49.069Z,90.00
2022-08-21T18:47:28.878Z,90.10
2022-08-21T18:50:01.431Z,90.10
2022-08-21T18:52:33.568Z,90.40
2022-08-21T18:55:13.517Z,90.50
2022-08-21T18:57:59.401Z,90.30
2022-08-21T19:00:44.261Z,90.50
2022-08-21T19:03:21.880Z,90.50
2022-08-21T19:05:55.827Z,90.70
2022-08-21T19:08:28.776Z,91.00
2022-08-21T19:11:02.431Z,90.90
2022-08-21T19:13:35.660Z,91.00
2022-08-21T19:16:09.678Z,91.10
2022-08-21T19:19:01.538Z,91.00
2022-08-21T19:21:34.021Z,91.20
2022-08-21T19:24:17.674Z,91.60
2022-08-21T19:26:59.026Z,91.40
2022-08-21T19:29:34.749Z,91.30
2022-08-21T19:32:08.300Z,91.40
2022-08-21T19:34:42.057Z,91.60
2022-08-21T19:37:16.309Z,91.70
2022-08-21T19:39:50.565Z,92.00
2022-08-21T19:42:28.663Z,92.20
2022-08-21T19:45:01.701Z,92.20
2022-08-21T19:47:36.217Z,92.10
2022-08-21T19:50:17.444Z,92.20
2022-08-21T19:52:53.462Z,92.50
2022-08-21T19:55:25.673Z,92.40
2022-08-21T19:57:57.623Z,92.60
2022-08-21T20:00:29.624Z,92.70
2022-08-21T20:03:01.798Z,93.00
2022-08-21T20:05:39.773Z,92.80
2022-08-21T20:08:20.213Z,92.90
2022-08-21T20:10:56.507Z,93.30
2022-08-21T20:13:33.660Z,92.40
2022-08-21T20:16:09.055Z,92.50
2022-08-21T20:18:41.467Z,92.00
2022-08-21T20:21:13.584Z,91.80
2022-08-21T20:26:38.405Z,91.90
2022-08-21T20:29:13.355Z,92.00
2022-08-21T20:31:48.047Z,92.20
2022-08-21T20:34:19.911Z,92.00
2022-08-21T20:39:44.060Z,92.40
2022-08-21T20:42:16.030Z,92.30
2022-08-21T20:44:48.049Z,92.30
2022-08-21T20:47:20.008Z,92.40
2022-08-21T20:49:59.555Z,92.40
2022-08-21T20:52:36.987Z,92.50
2022-08-21T20:55:17.473Z,92.70
2022-08-21T20:57:57.020Z,93.20
2022-08-21T21:00:34.620Z,93.20
2022-08-21T21:03:21.277Z,93.40
2022-08-21T21:06:07.932Z,93.20
2022-08-21T21:08:51.949Z,93.20
2022-08-21T21:11:33.552Z,93.40
2022-08-21T21:14:23.217Z,93.40
2022-08-21T21:17:02.189Z,93.70
2022-08-21T21:19:58.008Z,94.20
2022-08-21T21:22:38.575Z,94.30
2022-08-21T21:25:18.567Z,94.30
2022-08-21T21:28:12.817Z,94.10
2022-08-21T21:30:47.121Z,94.10
2022-08-21T21:33:29.585Z,94.10
2022-08-21T21:36:37.087Z,94.10
2022-08-21T21:39:53.597Z,94.20
2022-08-21T21:42:38.301Z,94.30
2022-08-21T21:45:25.225Z,94.10
2022-08-21T21:48:15.795Z,94.30
2022-08-21T21:51:01.897Z,94.40
2022-08-21T21:53:54.100Z,94.50
2022-08-21T21:56:42.486Z,94.90
2022-08-21T21:59:23.292Z,95.00
2022-08-21T22:02:03.293Z,95.30
2022-08-21T22:04:50.884Z,95.50
2022-08-21T22:07:52.398Z,95.70
2022-08-21T22:10:43.165Z,95.40
2022-08-21T22:16:14.051Z,95.40
2022-08-21T22:19:02.892Z,95.20
2022-08-21T22:21:45.354Z,95.10
2022-08-21T22:24:33.767Z,95.50
2022-08-21T22:27:11.430Z,95.70
2022-08-21T22:29:43.970Z,95.90
2022-08-21T22:32:23.088Z,95.80
2022-08-21T22:35:01.069Z,95.80
2022-08-21T22:37:50.114Z,95.60
2022-08-21T22:40:26.518Z,95.50
2022-08-21T22:43:09.396Z,95.70
2022-08-21T22:46:08.967Z,96.10
2022-08-21T22:48:56.946Z,96.30
2022-08-21T22:51:30.054Z,96.90
2022-08-21T22:54:05.110Z,97.00
2022-08-21T22:57:00.133Z,97.10
2022-08-21T23:00:00.908Z,97.10
2022-08-21T23:02:38.952Z,97.10
2022-08-21T23:05:21.943Z,97.10
2022-08-21T23:07:55.416Z,97.30
2022-08-21T23:10:34.088Z,97.40
2022-08-21T23:13:15.291Z,97.40
2022-08-21T23:15:50.908Z,97.60
2022-08-21T23:18:43.626Z,97.30
2022-08-21T23:21:27.974Z,97.20
2022-08-21T23:24:19.140Z,97.50
2022-08-21T23:27:03.832Z,97.90
2022-08-21T23:29:57.635Z,98.50
2022-08-21T23:33:03.404Z,98.90
2022-08-21T23:36:10.453Z,99.20
2022-08-21T23:39:05.064Z,99.50
2022-08-21T23:42:19.047Z,99.90
2022-08-21T23:45:13.810Z,99.70
2022-08-21T23:48:12.425Z,99.90
2022-08-21T23:51:08.381Z,99.90
2022-08-21T23:54:04.225Z,99.90
2022-08-21T23:56:39.153Z,99.90
2022-08-21T23:59:28.323Z,99.90
